• Join FlightAware (Why Join?)
  • Login
  • US Flag 
10:40AM EDT


 

Airport Tracker/Info


-or-


 

Live Flight TrackerFlight Track Log ✈ CPT8691 ✈ 26-Apr-2013 ✈ PHNL - PHJH / JHM

Flight Track Log - Related Links

Times and Time Zones

All times are in EDT time to prevent confusion due to time zone crossing. See the CPT8691 flight status page for this flight to view local times or setup timezone preferences in your user account.

Time Position Orientation Groundspeed Altitude Reporting Facility
EDT Latitude Longitude Course Direction KTS MPH feet Rate Location/Type
01:01PM 21.3167 -157.8833 155° Southeast 80 92 700  Level Honolulu Center
01:02PM 21.2833 -157.8667 155° Southeast 110 127 1,300 600 Climbing Honolulu Center
01:03PM 21.2667 -157.8500 137° Southeast 100 115 2,000 660 Climbing Honolulu Center
01:04PM 21.2500 -157.8333 137° Southeast 90 104 2,700 600 Climbing Honolulu Center
01:05PM 21.2500 -157.8000 90° East 90 104 3,300 540 Climbing Honolulu Center
01:06PM 21.2333 -157.7833 137° Southeast 100 115 3,800 540 Climbing Honolulu Center
01:07PM 21.2333 -157.7500 90° East 100 115 4,400 600 Climbing Honolulu Center
01:08PM 21.2333 -157.7167 90° East 110 127 5,000 540 Climbing Honolulu Center
01:09PM 21.2167 -157.6833 118° Southeast 110 127 5,500 540 Climbing Honolulu Center
01:10PM 21.2167 -157.6500 90° East 110 127 6,100 540 Climbing Honolulu Center
01:11PM 21.2167 -157.6167 90° East 120 138 6,600 420 Climbing Honolulu Center
01:12PM 21.2000 -157.5833 118° Southeast 130 150 7,000 180 Climbing Honolulu Center
01:13PM 21.2000 -157.5333 90° East 150 173 7,000  Level Honolulu Center
01:14PM 21.1833 -157.5000 118° Southeast 140 161 7,000  Level Honolulu Center
01:15PM 21.1833 -157.4500 90° East 140 161 7,000  Level Honolulu Center
01:16PM 21.1833 -157.4167 90° East 140 161 7,000  Level Honolulu Center
01:17PM 21.1667 -157.3667 110° East 140 161 7,000  Level Honolulu Center
01:18PM 21.1667 -157.3333 90° East 140 161 7,000  Level Honolulu Center
01:19PM 21.1500 -157.3000 118° Southeast 140 161 7,000  Level Honolulu Center
01:20PM 21.1333 -157.2500 110° East 150 173 7,000  Level Honolulu Center
01:21PM 21.1000 -157.2167 137° Southeast 150 173 7,000  Level Honolulu Center
01:22PM 21.0833 -157.2000 137° Southeast 140 161 7,000  Level Honolulu Center
01:23PM 21.0667 -157.1500 110° East 150 173 7,000 -240 Level Honolulu Center
01:24PM 21.0333 -157.1167 137° Southeast 160 184 6,600 -420 Descending Honolulu Center
01:25PM 21.0167 -157.0667 110° East 170 196 6,200 -420 Descending Honolulu Center
01:26PM 21.0000 -157.0167 110° East 170 196 5,800 -420 Descending Honolulu Center
01:27PM 20.9833 -156.9833 118° Southeast 150 173 5,400 -420 Descending Honolulu Center
01:28PM 20.9667 -156.9333 110° East 150 173 5,000 -420 Descending Honolulu Center